Time;durP1;ratioP1;P1;durP2;ratioP2;P2;SDS_P1;SDS_P2;PMS_P1;PMS_P2;Temp;Humidity;BMP_temperature;BMP_pressure;BME280_temperature;BME280_humidity;BME280_pressure;Samples;Min_cycle;Max_cycle;Signal;HPM_P1;HPM_P2
2022/03/02 00:02:17;;;;;;;74.10;12.77;;;;;;;;;;5071739;28;20681;-71
2022/03/02 00:04:44;;;;;;;74.03;12.40;;;;;;;;;;5071733;28;20232;-70
2022/03/02 00:07:11;;;;;;;71.95;11.50;;;;;;;;;;5071352;28;20209;-70
2022/03/02 00:09:39;;;;;;;72.28;12.90;;;;;;;;;;5071708;28;20244;-70
2022/03/02 00:12:06;;;;;;;76.63;11.60;;;;;;;;;;5071450;28;20760;-70
2022/03/02 00:14:33;;;;;;;71.15;11.95;;;;;;;;;;5075316;28;20296;-70
2022/03/02 00:17:00;;;;;;;71.53;13.20;;;;;;;;;;5075658;28;20201;-70
2022/03/02 00:19:29;;;;;;;73.47;12.73;;;;;;;;;;5075221;28;20728;-70
2022/03/02 00:21:56;;;;;;;71.70;12.02;;;;;;;;;;5075384;28;20669;-69
2022/03/02 00:24:24;;;;;;;74.88;12.38;;;;;;;;;;5075536;28;20207;-69
2022/03/02 00:26:51;;;;;;;69.80;11.43;;;;;;;;;;5075527;28;20227;-69
2022/03/02 00:29:18;;;;;;;74.43;13.90;;;;;;;;;;5075005;28;20217;-70
2022/03/02 00:31:46;;;;;;;73.95;12.75;;;;;;;;;;5075142;28;20240;-69
2022/03/02 00:34:14;;;;;;;70.63;12.35;;;;;;;;;;5075228;28;20259;-69
2022/03/02 00:36:42;;;;;;;73.28;12.10;;;;;;;;;;5075087;28;20319;-70
2022/03/02 00:39:09;;;;;;;73.32;12.30;;;;;;;;;;5074721;28;20211;-70
2022/03/02 00:41:36;;;;;;;68.82;11.55;;;;;;;;;;5074937;28;20292;-69
2022/03/02 00:44:04;;;;;;;75.93;13.90;;;;;;;;;;5074965;28;20247;-70
2022/03/02 00:46:31;;;;;;;77.90;13.75;;;;;;;;;;5074952;28;20237;-70
2022/03/02 00:48:59;;;;;;;72.70;11.88;;;;;;;;;;5074680;28;20296;-70
2022/03/02 00:51:27;;;;;;;75.70;13.32;;;;;;;;;;5074735;28;20227;-70
2022/03/02 00:53:56;;;;;;;73.20;13.30;;;;;;;;;;5086709;28;20215;-70
2022/03/02 00:56:24;;;;;;;72.38;13.05;;;;;;;;;;5096004;28;20236;-71
2022/03/02 00:58:51;;;;;;;78.25;12.60;;;;;;;;;;5096738;28;20193;-71
2022/03/02 01:01:18;;;;;;;76.60;13.45;;;;;;;;;;5096527;28;20237;-70
2022/03/02 01:03:45;;;;;;;76.80;14.30;;;;;;;;;;5096740;28;20240;-72
2022/03/02 01:06:12;;;;;;;71.28;11.82;;;;;;;;;;5096214;28;20264;-71
2022/03/02 01:08:39;;;;;;;70.97;12.80;;;;;;;;;;5094195;28;20664;-70
2022/03/02 01:11:08;;;;;;;72.60;14.13;;;;;;;;;;5095050;28;20288;-70
2022/03/02 01:13:35;;;;;;;73.82;12.07;;;;;;;;;;5097030;28;20277;-71
2022/03/02 01:16:03;;;;;;;72.88;12.10;;;;;;;;;;5096684;28;20256;-71
2022/03/02 01:18:30;;;;;;;76.22;13.25;;;;;;;;;;5096387;28;20735;-71
2022/03/02 01:20:59;;;;;;;71.28;12.20;;;;;;;;;;5096821;28;20209;-70
2022/03/02 01:23:26;;;;;;;71.97;12.30;;;;;;;;;;5096759;28;20220;-71
2022/03/02 01:25:53;;;;;;;71.13;12.57;;;;;;;;;;5095165;28;20267;-70
2022/03/02 01:28:22;;;;;;;73.45;12.32;;;;;;;;;;5096180;28;20240;-71
2022/03/02 01:30:49;;;;;;;73.28;12.95;;;;;;;;;;5095594;28;20253;-70
2022/03/02 01:33:16;;;;;;;77.18;11.77;;;;;;;;;;5096434;28;20240;-70
2022/03/02 01:35:43;;;;;;;77.13;13.35;;;;;;;;;;5096438;28;20224;-70
2022/03/02 01:38:11;;;;;;;70.75;11.82;;;;;;;;;;5081825;28;20247;-71
2022/03/02 01:40:38;;;;;;;70.10;11.63;;;;;;;;;;5075080;28;20205;-70
2022/03/02 01:43:05;;;;;;;71.32;11.75;;;;;;;;;;5074550;28;20291;-71
2022/03/02 01:45:34;;;;;;;76.40;14.60;;;;;;;;;;5074323;28;20311;-71
2022/03/02 01:48:01;;;;;;;71.43;11.73;;;;;;;;;;5073992;28;20240;-70
2022/03/02 01:50:29;;;;;;;70.57;11.43;;;;;;;;;;5074189;28;20209;-71
2022/03/02 01:52:56;;;;;;;73.00;13.00;;;;;;;;;;5073892;28;20208;-70
2022/03/02 01:55:24;;;;;;;78.18;12.38;;;;;;;;;;5073918;28;20780;-70
2022/03/02 01:57:51;;;;;;;74.40;12.15;;;;;;;;;;5073777;28;20209;-70
2022/03/02 02:00:20;;;;;;;73.03;13.25;;;;;;;;;;5073844;28;20215;-71
2022/03/02 02:02:49;;;;;;;81.75;12.07;;;;;;;;;;5073773;28;20205;-70
2022/03/02 02:05:16;;;;;;;75.60;12.70;;;;;;;;;;5073677;28;20251;-71
2022/03/02 02:07:44;;;;;;;73.80;13.52;;;;;;;;;;5073698;28;20204;-71
2022/03/02 02:10:11;;;;;;;69.95;11.80;;;;;;;;;;5073630;28;20205;-71
2022/03/02 02:12:38;;;;;;;73.25;11.45;;;;;;;;;;5073359;28;20225;-70
2022/03/02 02:15:06;;;;;;;71.35;11.30;;;;;;;;;;5073272;28;20315;-70
2022/03/02 02:17:33;;;;;;;74.45;13.18;;;;;;;;;;5074244;28;20240;-70
2022/03/02 02:20:02;;;;;;;71.30;11.18;;;;;;;;;;5073655;28;20205;-70
2022/03/02 02:22:30;;;;;;;76.53;13.15;;;;;;;;;;5071772;28;20330;-70
2022/03/02 02:24:58;;;;;;;70.55;11.98;;;;;;;;;;5073303;28;20807;-70
2022/03/02 02:27:25;;;;;;;71.25;13.02;;;;;;;;;;5072838;28;20207;-70
2022/03/02 02:29:52;;;;;;;70.35;11.30;;;;;;;;;;5072852;28;20220;-70
2022/03/02 02:32:19;;;;;;;79.75;13.65;;;;;;;;;;5073392;28;20233;-71
2022/03/02 02:34:46;;;;;;;73.32;12.25;;;;;;;;;;5072861;28;20225;-70
2022/03/02 02:37:13;;;;;;;71.82;12.18;;;;;;;;;;5073038;28;20204;-71
2022/03/02 02:39:42;;;;;;;72.28;12.02;;;;;;;;;;5073146;28;20236;-70
2022/03/02 02:42:10;;;;;;;79.70;12.43;;;;;;;;;;5072678;28;20701;-70
2022/03/02 02:44:37;;;;;;;71.85;12.75;;;;;;;;;;5072652;28;20229;-70
2022/03/02 02:47:05;;;;;;;69.57;11.20;;;;;;;;;;5072470;28;20237;-70
2022/03/02 02:49:32;;;;;;;72.43;12.18;;;;;;;;;;5072368;28;20292;-70
2022/03/02 02:51:59;;;;;;;69.20;12.93;;;;;;;;;;5072685;28;20228;-70
2022/03/02 02:54:27;;;;;;;75.40;11.38;;;;;;;;;;5072496;28;20209;-70
2022/03/02 02:56:55;;;;;;;75.38;12.50;;;;;;;;;;5072582;28;20730;-70
2022/03/02 02:59:22;;;;;;;71.50;11.23;;;;;;;;;;5072186;28;20213;-71
2022/03/02 03:01:49;;;;;;;71.47;11.00;;;;;;;;;;5072322;28;20673;-70
2022/03/02 03:04:16;;;;;;;71.68;11.40;;;;;;;;;;5072469;28;20211;-70
2022/03/02 03:06:44;;;;;;;69.13;11.50;;;;;;;;;;5072517;28;20201;-69
2022/03/02 03:09:11;;;;;;;85.70;13.07;;;;;;;;;;5072177;28;20629;-68
2022/03/02 03:11:39;;;;;;;70.70;11.25;;;;;;;;;;5072296;28;20263;-70
2022/03/02 03:14:10;;;;;;;72.80;11.82;;;;;;;;;;5072141;28;20232;-70
2022/03/02 03:16:37;;;;;;;70.03;11.60;;;;;;;;;;5071987;28;20315;-70
2022/03/02 03:19:05;;;;;;;73.40;12.40;;;;;;;;;;5071989;28;20210;-71
2022/03/02 03:21:32;;;;;;;71.20;11.25;;;;;;;;;;5072452;28;20219;-69
2022/03/02 03:23:59;;;;;;;71.45;11.95;;;;;;;;;;5072216;28;20215;-70
2022/03/02 03:26:26;;;;;;;71.13;12.10;;;;;;;;;;5072020;28;20593;-69
2022/03/02 03:28:54;;;;;;;72.78;11.75;;;;;;;;;;5071594;28;20218;-69
2022/03/02 03:31:22;;;;;;;74.53;11.00;;;;;;;;;;5071761;28;20221;-70
2022/03/02 03:33:49;;;;;;;68.25;11.05;;;;;;;;;;5072074;28;20660;-71
2022/03/02 03:36:16;;;;;;;75.75;10.90;;;;;;;;;;5071839;28;20243;-70
2022/03/02 03:38:44;;;;;;;69.75;11.05;;;;;;;;;;5071710;28;20208;-69
2022/03/02 03:41:12;;;;;;;73.10;13.10;;;;;;;;;;5071931;28;20205;-69
2022/03/02 03:43:39;;;;;;;69.30;10.80;;;;;;;;;;5071686;28;20208;-69
2022/03/02 03:46:06;;;;;;;71.50;11.73;;;;;;;;;;5071931;28;20221;-69
2022/03/02 03:48:34;;;;;;;72.78;12.32;;;;;;;;;;5070950;28;20299;-70
2022/03/02 03:51:02;;;;;;;73.90;11.63;;;;;;;;;;5071826;28;20212;-69
2022/03/02 03:53:29;;;;;;;72.00;12.77;;;;;;;;;;5071629;28;20264;-69
2022/03/02 03:55:56;;;;;;;72.80;13.00;;;;;;;;;;5071525;28;20311;-69
2022/03/02 03:58:23;;;;;;;74.82;13.13;;;;;;;;;;5071642;28;20466;-69
2022/03/02 04:00:50;;;;;;;70.78;10.68;;;;;;;;;;5071872;28;20208;-69
2022/03/02 04:03:18;;;;;;;69.07;10.50;;;;;;;;;;5071703;28;20205;-70
2022/03/02 04:05:46;;;;;;;68.95;10.32;;;;;;;;;;5071713;28;20304;-69
2022/03/02 04:08:13;;;;;;;70.43;10.35;;;;;;;;;;5071806;28;20211;-69
2022/03/02 04:10:40;;;;;;;69.25;11.32;;;;;;;;;;5071557;28;20201;-70
2022/03/02 04:13:08;;;;;;;72.82;12.90;;;;;;;;;;5071693;28;20315;-69
2022/03/02 04:15:36;;;;;;;70.25;12.20;;;;;;;;;;5071523;28;20237;-69
2022/03/02 04:18:03;;;;;;;72.18;11.93;;;;;;;;;;5071186;28;20212;-68
2022/03/02 04:20:30;;;;;;;72.53;12.20;;;;;;;;;;5071522;28;20211;-70
2022/03/02 04:22:59;;;;;;;70.88;11.32;;;;;;;;;;5071302;28;20623;-69
2022/03/02 04:25:26;;;;;;;72.65;10.88;;;;;;;;;;5071511;28;20246;-68
2022/03/02 04:27:53;;;;;;;69.53;11.10;;;;;;;;;;5071026;28;20229;-69
2022/03/02 04:30:20;;;;;;;72.55;12.45;;;;;;;;;;5071377;28;20746;-70
2022/03/02 04:32:48;;;;;;;71.78;12.38;;;;;;;;;;5071239;28;20221;-69
2022/03/02 04:35:15;;;;;;;70.13;10.82;;;;;;;;;;5071340;28;20225;-69
2022/03/02 04:37:43;;;;;;;68.72;11.07;;;;;;;;;;5071125;28;20312;-68
2022/03/02 04:40:12;;;;;;;68.10;10.35;;;;;;;;;;5071236;28;20208;-69
2022/03/02 04:42:39;;;;;;;70.53;11.88;;;;;;;;;;5071511;28;20201;-69
2022/03/02 04:45:07;;;;;;;70.20;10.80;;;;;;;;;;5071367;28;20321;-69
2022/03/02 04:47:34;;;;;;;70.78;11.32;;;;;;;;;;5070907;28;20205;-69
2022/03/02 04:50:02;;;;;;;69.50;10.80;;;;;;;;;;5071276;28;20279;-69
2022/03/02 04:52:29;;;;;;;70.55;10.27;;;;;;;;;;5071194;28;20312;-69
2022/03/02 04:55:09;;;;;;;69.25;10.43;;;;;;;;;;5070823;28;20221;-68
2022/03/02 04:57:39;;;;;;;77.28;11.05;;;;;;;;;;5070854;28;20258;-68
2022/03/02 05:00:09;;;;;;;70.72;11.50;;;;;;;;;;5073764;28;20208;-70
2022/03/02 05:02:36;;;;;;;68.60;12.05;;;;;;;;;;5074469;28;20208;-70
2022/03/02 05:05:03;;;;;;;73.68;11.90;;;;;;;;;;5074875;28;20324;-70
2022/03/02 05:07:30;;;;;;;68.50;11.38;;;;;;;;;;5074811;28;20209;-70
2022/03/02 05:09:57;;;;;;;67.40;10.75;;;;;;;;;;5074703;28;20295;-71
2022/03/02 05:12:25;;;;;;;70.55;11.18;;;;;;;;;;5074454;28;20221;-70
2022/03/02 05:14:53;;;;;;;73.13;11.93;;;;;;;;;;5074565;28;20315;-71
2022/03/02 05:17:20;;;;;;;71.15;11.20;;;;;;;;;;5074298;28;20217;-71
2022/03/02 05:19:47;;;;;;;72.20;11.30;;;;;;;;;;5074718;28;20211;-70
2022/03/02 05:22:15;;;;;;;68.80;10.68;;;;;;;;;;5074482;28;20197;-70
2022/03/02 05:24:42;;;;;;;68.88;11.15;;;;;;;;;;5074469;28;20320;-70
2022/03/02 05:27:09;;;;;;;68.65;10.68;;;;;;;;;;5074254;28;20200;-71
2022/03/02 05:29:37;;;;;;;72.82;11.60;;;;;;;;;;5074029;28;20217;-70
2022/03/02 05:32:06;;;;;;;78.25;12.40;;;;;;;;;;5074162;28;20224;-70
2022/03/02 05:34:33;;;;;;;70.57;10.88;;;;;;;;;;5074196;28;20288;-70
2022/03/02 05:37:00;;;;;;;71.00;10.65;;;;;;;;;;5074179;28;20219;-71
2022/03/02 05:39:27;;;;;;;67.53;10.30;;;;;;;;;;5074175;28;20292;-70
2022/03/02 05:41:55;;;;;;;68.78;10.10;;;;;;;;;;5074537;28;20205;-71
2022/03/02 05:44:22;;;;;;;70.95;10.38;;;;;;;;;;5076125;28;20209;-69
2022/03/02 05:46:50;;;;;;;75.03;12.55;;;;;;;;;;5074064;28;20209;-69
2022/03/02 05:49:18;;;;;;;74.65;11.80;;;;;;;;;;5073699;28;20219;-69
2022/03/02 05:51:45;;;;;;;69.80;11.82;;;;;;;;;;5073759;28;20299;-69
2022/03/02 05:54:13;;;;;;;73.15;10.88;;;;;;;;;;5074136;28;20201;-70
2022/03/02 05:56:40;;;;;;;72.15;10.25;;;;;;;;;;5073581;28;20221;-69
2022/03/02 05:59:08;;;;;;;71.43;10.88;;;;;;;;;;5073343;28;20291;-69
2022/03/02 06:01:36;;;;;;;73.03;12.43;;;;;;;;;;5073821;28;20781;-69
2022/03/02 06:04:05;;;;;;;67.97;10.25;;;;;;;;;;5073572;28;20288;-69
2022/03/02 06:06:34;;;;;;;71.63;12.25;;;;;;;;;;5073299;28;20225;-69
2022/03/02 06:09:01;;;;;;;71.82;12.60;;;;;;;;;;5073264;28;20212;-70
2022/03/02 06:11:29;;;;;;;73.50;12.63;;;;;;;;;;5072693;28;20291;-69
2022/03/02 06:13:56;;;;;;;76.88;11.45;;;;;;;;;;5073408;28;20642;-69
2022/03/02 06:16:24;;;;;;;69.82;10.38;;;;;;;;;;5073245;28;20271;-69
2022/03/02 06:18:52;;;;;;;73.93;11.52;;;;;;;;;;5073127;28;20208;-70
2022/03/02 06:21:20;;;;;;;72.68;11.52;;;;;;;;;;5073647;28;20622;-70
2022/03/02 06:23:49;;;;;;;76.78;13.05;;;;;;;;;;5073051;28;20201;-70
2022/03/02 06:26:18;;;;;;;75.28;10.93;;;;;;;;;;5072855;28;20785;-69
2022/03/02 06:28:45;;;;;;;77.40;12.15;;;;;;;;;;5072607;28;20216;-68
2022/03/02 06:31:13;;;;;;;69.65;10.98;;;;;;;;;;5073103;28;20201;-69
2022/03/02 06:33:40;;;;;;;68.93;10.27;;;;;;;;;;5072952;28;20260;-69
2022/03/02 06:36:08;;;;;;;73.25;11.07;;;;;;;;;;5072917;28;20320;-69
2022/03/02 06:38:35;;;;;;;70.93;10.90;;;;;;;;;;5072436;28;20643;-69
2022/03/02 06:41:05;;;;;;;71.22;11.68;;;;;;;;;;5073214;28;20296;-69
2022/03/02 06:46:42;;;;;;;74.28;12.95;;;;;;;;;;5071119;28;20245;-69
2022/03/02 06:49:15;;;;;;;68.95;11.23;;;;;;;;;;5072521;28;20201;-69
2022/03/02 06:51:44;;;;;;;70.47;12.68;;;;;;;;;;5073017;28;20208;-69
2022/03/02 06:54:12;;;;;;;73.15;11.63;;;;;;;;;;5072412;28;20225;-69
2022/03/02 06:56:48;;;;;;;71.40;11.77;;;;;;;;;;5072312;28;20224;-69
2022/03/02 06:59:18;;;;;;;68.75;10.55;;;;;;;;;;5072300;28;20205;-69
2022/03/02 07:01:48;;;;;;;69.03;11.73;;;;;;;;;;5072576;28;20309;-70
2022/03/02 07:04:16;;;;;;;69.80;11.90;;;;;;;;;;5072204;28;20665;-69
2022/03/02 07:06:43;;;;;;;73.72;11.82;;;;;;;;;;5072625;28;20209;-69
2022/03/02 07:09:11;;;;;;;74.45;12.25;;;;;;;;;;5071878;28;20695;-70
2022/03/02 07:11:38;;;;;;;68.93;10.43;;;;;;;;;;5072303;28;20205;-70
2022/03/02 07:14:12;;;;;;;70.15;11.80;;;;;;;;;;5072246;28;20246;-70
2022/03/02 07:16:41;;;;;;;73.60;11.80;;;;;;;;;;5072362;28;20228;-70
2022/03/02 07:19:08;;;;;;;69.05;10.15;;;;;;;;;;5071953;28;20577;-70
2022/03/02 07:21:36;;;;;;;69.95;10.63;;;;;;;;;;5071866;28;20300;-70
2022/03/02 07:24:06;;;;;;;74.28;11.23;;;;;;;;;;5071608;28;20292;-71
2022/03/02 07:26:35;;;;;;;73.78;11.18;;;;;;;;;;5072201;28;20247;-70
2022/03/02 07:29:03;;;;;;;72.65;11.18;;;;;;;;;;5071701;28;20209;-70
2022/03/02 07:31:32;;;;;;;72.07;11.52;;;;;;;;;;5072067;28;20217;-70
2022/03/02 07:34:02;;;;;;;70.60;11.75;;;;;;;;;;5071819;28;20228;-71
2022/03/02 07:36:30;;;;;;;69.15;10.68;;;;;;;;;;5071863;28;20235;-70
2022/03/02 07:38:57;;;;;;;72.13;11.30;;;;;;;;;;5071625;28;20201;-70
2022/03/02 07:41:25;;;;;;;73.07;12.50;;;;;;;;;;5071941;28;20295;-70
2022/03/02 07:43:53;;;;;;;73.25;12.95;;;;;;;;;;5071933;28;20205;-69
2022/03/02 07:46:20;;;;;;;74.38;12.70;;;;;;;;;;5071968;28;20645;-70
2022/03/02 07:48:48;;;;;;;71.53;12.30;;;;;;;;;;5071574;28;20672;-70
2022/03/02 07:51:16;;;;;;;72.63;12.27;;;;;;;;;;5072184;28;20223;-70
2022/03/02 07:53:44;;;;;;;73.03;10.52;;;;;;;;;;5071849;28;20247;-70
2022/03/02 07:56:13;;;;;;;68.18;10.85;;;;;;;;;;5071785;28;20235;-70
2022/03/02 07:58:41;;;;;;;73.15;11.13;;;;;;;;;;5071386;28;20734;-71
2022/03/02 08:01:08;;;;;;;70.93;10.32;;;;;;;;;;5071641;28;20628;-69
2022/03/02 08:03:38;;;;;;;69.70;11.15;;;;;;;;;;5071776;28;20201;-70
2022/03/02 08:06:08;;;;;;;69.78;10.93;;;;;;;;;;5071611;28;20315;-70
2022/03/02 08:08:36;;;;;;;71.45;11.68;;;;;;;;;;5071392;28;20295;-68
2022/03/02 08:11:03;;;;;;;70.50;11.18;;;;;;;;;;5071661;28;20201;-71
2022/03/02 08:13:31;;;;;;;75.13;11.85;;;;;;;;;;5071470;28;20614;-69
2022/03/02 08:15:58;;;;;;;73.85;11.02;;;;;;;;;;5071487;28;20392;-68
2022/03/02 08:18:25;;;;;;;68.82;11.68;;;;;;;;;;5083736;28;20579;-68
2022/03/02 08:20:53;;;;;;;70.20;11.25;;;;;;;;;;5079299;28;20216;-71
2022/03/02 08:23:22;;;;;;;69.45;11.77;;;;;;;;;;5069998;28;20197;-70
2022/03/02 08:25:52;;;;;;;71.38;11.90;;;;;;;;;;5071528;28;20252;-69
2022/03/02 08:28:20;;;;;;;70.70;11.80;;;;;;;;;;5070052;28;20674;-71
2022/03/02 08:30:49;;;;;;;72.75;12.73;;;;;;;;;;5071005;28;20295;-70
2022/03/02 08:33:20;;;;;;;71.30;11.82;;;;;;;;;;5071194;28;20229;-70
2022/03/02 08:35:50;;;;;;;72.38;12.93;;;;;;;;;;5075730;28;20225;-70
2022/03/02 08:38:18;;;;;;;75.43;11.50;;;;;;;;;;5075033;28;20201;-71
2022/03/02 08:40:47;;;;;;;69.93;10.68;;;;;;;;;;5074586;28;20295;-72
2022/03/02 08:43:15;;;;;;;72.20;11.70;;;;;;;;;;5074748;28;20573;-70
2022/03/02 08:45:43;;;;;;;67.88;11.18;;;;;;;;;;5074959;28;20752;-70
2022/03/02 08:48:11;;;;;;;70.85;11.45;;;;;;;;;;5075054;28;20626;-70
2022/03/02 08:50:39;;;;;;;69.63;10.88;;;;;;;;;;5074929;28;20291;-70
2022/03/02 08:53:06;;;;;;;71.82;10.75;;;;;;;;;;5074642;28;20217;-72
2022/03/02 08:55:34;;;;;;;70.95;10.60;;;;;;;;;;5077769;28;20311;-71
2022/03/02 08:58:02;;;;;;;68.43;10.75;;;;;;;;;;5095041;28;20584;-69
2022/03/02 09:00:30;;;;;;;73.63;11.88;;;;;;;;;;5095113;28;20246;-72
2022/03/02 09:02:57;;;;;;;76.70;11.13;;;;;;;;;;5095007;28;20204;-70
2022/03/02 09:05:28;;;;;;;72.22;11.40;;;;;;;;;;5094872;28;20670;-70
2022/03/02 09:07:55;;;;;;;69.38;10.57;;;;;;;;;;5094848;28;20196;-70
2022/03/02 09:10:23;;;;;;;70.15;10.60;;;;;;;;;;5094821;28;20298;-70
2022/03/02 09:12:50;;;;;;;71.85;11.15;;;;;;;;;;5094857;28;20204;-70
2022/03/02 09:15:19;;;;;;;68.60;10.15;;;;;;;;;;5094771;28;20227;-70
2022/03/02 09:17:46;;;;;;;70.10;11.30;;;;;;;;;;5094550;28;20210;-70
2022/03/02 09:20:13;;;;;;;67.72;9.25;;;;;;;;;;5095069;28;20208;-70
2022/03/02 09:22:42;;;;;;;68.38;9.32;;;;;;;;;;5094458;28;20212;-71
2022/03/02 09:25:09;;;;;;;66.90;10.00;;;;;;;;;;5094467;28;20225;-71
2022/03/02 09:27:37;;;;;;;69.90;10.00;;;;;;;;;;5085513;28;20205;-70
2022/03/02 09:30:05;;;;;;;68.63;9.68;;;;;;;;;;5074184;28;20297;-70
2022/03/02 09:32:34;;;;;;;69.43;10.70;;;;;;;;;;5074156;28;20205;-71
2022/03/02 09:35:02;;;;;;;64.32;8.90;;;;;;;;;;5073861;28;20330;-70
2022/03/02 09:37:32;;;;;;;67.03;8.68;;;;;;;;;;5074048;28;20241;-70
2022/03/02 09:40:01;;;;;;;66.68;9.68;;;;;;;;;;5073988;28;20206;-70
2022/03/02 09:42:30;;;;;;;68.28;9.40;;;;;;;;;;5073934;28;20297;-70
2022/03/02 09:45:01;;;;;;;64.45;8.32;;;;;;;;;;5073494;28;20308;-71
2022/03/02 09:47:32;;;;;;;69.07;10.20;;;;;;;;;;5073102;28;20205;-71
2022/03/02 09:50:02;;;;;;;66.47;9.70;;;;;;;;;;5073968;28;20539;-71
2022/03/02 09:52:32;;;;;;;64.90;9.37;;;;;;;;;;5073753;28;20670;-70
2022/03/02 09:54:59;;;;;;;70.87;10.97;;;;;;;;;;5073646;28;20495;-72
2022/03/02 09:57:27;;;;;;;67.10;9.87;;;;;;;;;;5073052;28;20544;-70
2022/03/02 09:59:55;;;;;;;71.80;10.60;;;;;;;;;;5072410;28;21009;-70
2022/03/02 10:02:29;;;;;;;71.20;9.33;;;;;;;;;;5073633;28;20978;-71
2022/03/02 10:04:59;;;;;;;67.90;10.43;;;;;;;;;;5073352;28;20463;-71
2022/03/02 10:07:30;;;;;;;66.90;9.60;;;;;;;;;;5073299;28;20545;-71
2022/03/02 10:10:03;;;;;;;70.23;11.20;;;;;;;;;;5073289;28;20556;-71
2022/03/02 10:12:31;;;;;;;71.07;10.00;;;;;;;;;;5073188;28;20540;-71
2022/03/02 10:14:59;;;;;;;67.07;9.47;;;;;;;;;;5073428;28;20835;-71
2022/03/02 10:17:32;;;;;;;69.07;9.93;;;;;;;;;;5073376;28;20472;-71
2022/03/02 10:20:01;;;;;;;69.20;10.73;;;;;;;;;;5073430;28;20449;-71
2022/03/02 10:22:38;;;;;;;70.00;10.20;;;;;;;;;;5073280;28;20443;-71
2022/03/02 10:25:07;;;;;;;69.70;11.40;;;;;;;;;;5072991;28;20542;-71
2022/03/02 10:27:36;;;;;;;66.73;10.17;;;;;;;;;;5072778;28;20464;-71
2022/03/02 10:30:06;;;;;;;67.27;10.40;;;;;;;;;;5072351;28;21011;-71
2022/03/02 10:32:35;;;;;;;67.30;11.20;;;;;;;;;;5093132;28;20544;-71
2022/03/02 10:35:05;;;;;;;67.00;10.30;;;;;;;;;;5093351;28;20545;-74
2022/03/02 10:37:34;;;;;;;71.40;11.70;;;;;;;;;;5092711;28;20466;-73
2022/03/02 10:40:09;;;;;;;66.10;10.30;;;;;;;;;;5093384;28;20489;-72
2022/03/02 10:42:37;;;;;;;68.27;10.07;;;;;;;;;;5093209;28;20467;-72
2022/03/02 10:45:12;;;;;;;70.40;9.80;;;;;;;;;;5092990;28;20545;-71
2022/03/02 10:47:43;;;;;;;68.17;10.60;;;;;;;;;;5092711;28;20472;-72
2022/03/02 10:50:10;;;;;;;65.57;10.07;;;;;;;;;;5092570;28;20577;-72
2022/03/02 10:52:38;;;;;;;71.93;10.50;;;;;;;;;;5092918;28;20889;-72
2022/03/02 10:55:09;;;;;;;70.10;10.40;;;;;;;;;;5092689;28;20493;-72
2022/03/02 11:00:39;;;;;;;68.27;10.90;;;;;;;;;;5090317;28;20248;-71
2022/03/02 11:03:07;;;;;;;68.73;10.73;;;;;;;;;;5074019;28;20538;-71
2022/03/02 11:05:35;;;;;;;68.80;10.33;;;;;;;;;;5072580;28;21089;-71
2022/03/02 11:08:03;;;;;;;70.70;12.43;;;;;;;;;;5071797;28;20525;-72
2022/03/02 11:10:33;;;;;;;70.57;10.87;;;;;;;;;;5072534;28;20489;-71
2022/03/02 11:13:00;;;;;;;67.70;11.77;;;;;;;;;;5072274;28;20447;-71
2022/03/02 11:15:28;;;;;;;68.30;10.80;;;;;;;;;;5072292;28;20490;-72
2022/03/02 11:17:56;;;;;;;67.60;10.10;;;;;;;;;;5072401;28;20443;-71
2022/03/02 11:20:25;;;;;;;67.23;10.20;;;;;;;;;;5072177;28;20451;-72
2022/03/02 11:22:53;;;;;;;74.00;10.30;;;;;;;;;;5072371;28;20955;-72
2022/03/02 11:25:20;;;;;;;68.27;10.63;;;;;;;;;;5072348;28;20463;-71
2022/03/02 11:27:51;;;;;;;72.00;11.37;;;;;;;;;;5071883;28;20474;-71
2022/03/02 11:30:19;;;;;;;69.60;10.93;;;;;;;;;;5071944;28;20451;-70
2022/03/02 11:32:48;;;;;;;70.03;11.13;;;;;;;;;;5071836;28;20879;-70
2022/03/02 11:35:18;;;;;;;67.23;10.57;;;;;;;;;;5087116;28;20496;-70
2022/03/02 11:37:45;;;;;;;69.00;10.17;;;;;;;;;;5092060;28;20442;-71
2022/03/02 11:40:15;;;;;;;68.03;10.23;;;;;;;;;;5092280;28;20446;-70
2022/03/02 11:42:43;;;;;;;69.50;11.50;;;;;;;;;;5092153;28;20450;-70
2022/03/02 11:45:12;;;;;;;68.57;10.90;;;;;;;;;;5091827;28;20612;-69
2022/03/02 11:47:41;;;;;;;66.60;10.50;;;;;;;;;;5091640;28;20450;-71
2022/03/02 11:50:09;;;;;;;68.00;11.50;;;;;;;;;;5092163;28;20457;-70
2022/03/02 11:52:37;;;;;;;71.63;10.30;;;;;;;;;;5091970;28;20485;-71
2022/03/02 11:55:06;;;;;;;68.10;10.53;;;;;;;;;;5091699;28;20573;-71
2022/03/02 11:57:39;;;;;;;67.87;11.50;;;;;;;;;;5091546;28;20450;-71
2022/03/02 12:00:12;;;;;;;67.97;10.63;;;;;;;;;;5092187;28;20438;-70
2022/03/02 12:02:43;;;;;;;68.67;10.43;;;;;;;;;;5092038;28;20449;-70
2022/03/02 12:05:11;;;;;;;69.93;11.17;;;;;;;;;;5091657;28;20549;-70
2022/03/02 12:07:39;;;;;;;76.27;11.43;;;;;;;;;;5071680;28;20459;-70
2022/03/02 12:10:16;;;;;;;69.03;11.67;;;;;;;;;;5074599;28;20455;-72
2022/03/02 12:12:43;;;;;;;69.67;11.33;;;;;;;;;;5075275;28;20443;-72
2022/03/02 12:15:12;;;;;;;68.57;11.73;;;;;;;;;;5075680;28;20492;-71
2022/03/02 12:17:39;;;;;;;68.20;10.80;;;;;;;;;;5075385;28;20459;-72
2022/03/02 12:20:07;;;;;;;66.67;10.37;;;;;;;;;;5075847;28;20433;-71
2022/03/02 12:22:35;;;;;;;69.90;11.60;;;;;;;;;;5075629;28;20967;-70
2022/03/02 12:25:03;;;;;;;71.87;11.50;;;;;;;;;;5075420;28;20891;-70
2022/03/02 12:27:30;;;;;;;68.50;10.70;;;;;;;;;;5074911;28;20476;-70
2022/03/02 12:30:00;;;;;;;68.47;11.33;;;;;;;;;;5075488;28;20462;-71
2022/03/02 12:32:30;;;;;;;67.00;10.43;;;;;;;;;;5075345;28;20798;-70
2022/03/02 12:34:57;;;;;;;68.33;11.53;;;;;;;;;;5075499;28;20487;-69
2022/03/02 12:37:25;;;;;;;71.93;11.17;;;;;;;;;;5075066;28;20525;-69
2022/03/02 12:39:52;;;;;;;71.97;10.77;;;;;;;;;;5095185;28;20482;-69
2022/03/02 12:42:19;;;;;;;70.87;10.70;;;;;;;;;;5095673;28;20815;-69
2022/03/02 12:44:47;;;;;;;69.10;10.70;;;;;;;;;;5095373;28;20474;-69
2022/03/02 12:47:17;;;;;;;69.60;10.23;;;;;;;;;;5094790;28;20462;-69
2022/03/02 12:49:46;;;;;;;71.10;11.33;;;;;;;;;;5095295;28;20486;-69
2022/03/02 12:52:14;;;;;;;67.23;10.43;;;;;;;;;;5094925;28;20537;-69
2022/03/02 12:54:42;;;;;;;67.77;10.93;;;;;;;;;;5095065;28;20573;-69
2022/03/02 12:57:10;;;;;;;68.17;11.07;;;;;;;;;;5094803;28;20448;-72
2022/03/02 12:59:38;;;;;;;67.57;10.80;;;;;;;;;;5095156;28;20531;-67
2022/03/02 13:02:06;;;;;;;66.87;9.53;;;;;;;;;;5094958;28;20472;-69
2022/03/02 13:04:37;;;;;;;66.97;9.70;;;;;;;;;;5094878;28;20442;-70
2022/03/02 13:07:11;;;;;;;69.90;11.10;;;;;;;;;;5094997;28;20529;-70
2022/03/02 13:09:40;;;;;;;68.93;10.10;;;;;;;;;;5092998;28;20821;-70
2022/03/02 13:12:26;;;;;;;68.60;10.17;;;;;;;;;;5094949;28;20549;-70
2022/03/02 13:14:53;;;;;;;68.20;10.50;;;;;;;;;;5094637;28;20572;-70
2022/03/02 13:17:21;;;;;;;70.00;10.70;;;;;;;;;;5094540;28;20478;-70
2022/03/02 13:19:49;;;;;;;69.53;10.57;;;;;;;;;;5094102;28;20453;-72
2022/03/02 13:22:28;;;;;;;67.07;10.33;;;;;;;;;;5093882;28;20530;-70
2022/03/02 13:24:56;;;;;;;70.73;12.07;;;;;;;;;;5094507;28;20462;-71
2022/03/02 13:27:24;;;;;;;70.07;10.80;;;;;;;;;;5094243;28;20453;-71
2022/03/02 13:30:06;;;;;;;66.80;10.60;;;;;;;;;;5094571;28;20485;-72
2022/03/02 13:33:03;;;;;;;66.27;9.83;;;;;;;;;;5091857;28;20900;-71
2022/03/02 13:35:31;;;;;;;67.90;10.00;;;;;;;;;;5011867;28;20581;-71
2022/03/02 13:38:01;;;;;;;67.57;10.37;;;;;;;;;;5075375;28;20454;-71
2022/03/02 13:40:41;;;;;;;66.87;10.90;;;;;;;;;;5092087;28;20457;-71
2022/03/02 13:43:42;;;;;;;70.13;11.00;;;;;;;;;;5094284;28;20446;-70
2022/03/02 13:46:20;;;;;;;68.17;10.67;;;;;;;;;;5011729;28;20516;-71
2022/03/02 13:48:48;;;;;;;70.80;11.63;;;;;;;;;;5011413;28;20500;-70
2022/03/02 13:51:15;;;;;;;68.17;11.73;;;;;;;;;;5011659;28;20513;-70
2022/03/02 13:53:45;;;;;;;99.97;29.30;;;;;;;;;;5011402;28;20485;-71
2022/03/02 13:56:14;;;;;;;68.47;11.17;;;;;;;;;;5011608;28;21014;-71
2022/03/02 13:58:43;;;;;;;70.20;11.53;;;;;;;;;;5011398;28;20446;-70
2022/03/02 14:01:31;;;;;;;67.10;9.53;;;;;;;;;;5011340;28;20446;-71
2022/03/02 14:04:02;;;;;;;71.40;11.43;;;;;;;;;;5011454;28;20485;-72
2022/03/02 14:06:29;;;;;;;68.53;11.27;;;;;;;;;;5011356;28;20461;-70
2022/03/02 14:08:58;;;;;;;70.40;11.80;;;;;;;;;;5010456;28;20612;-70
2022/03/02 14:11:32;;;;;;;71.60;10.90;;;;;;;;;;5010931;28;20454;-70
2022/03/02 14:13:59;;;;;;;69.87;10.23;;;;;;;;;;5009919;28;20460;-71
2022/03/02 14:16:26;;;;;;;67.50;11.30;;;;;;;;;;5030569;28;20577;-72
2022/03/02 14:19:04;;;;;;;74.83;11.40;;;;;;;;;;5093055;28;20482;-70
2022/03/02 14:21:31;;;;;;;70.10;10.40;;;;;;;;;;5093442;28;20489;-72
2022/03/02 14:23:59;;;;;;;67.57;11.03;;;;;;;;;;5093093;28;20449;-72
2022/03/02 14:26:26;;;;;;;67.70;9.87;;;;;;;;;;5093214;28;21008;-70
2022/03/02 14:28:54;;;;;;;66.97;10.07;;;;;;;;;;5092885;28;20450;-69
2022/03/02 14:31:21;;;;;;;69.83;10.93;;;;;;;;;;5092606;28;20563;-70
2022/03/02 14:33:57;;;;;;;72.13;11.03;;;;;;;;;;5093098;28;20541;-69